Time;durP1;ratioP1;P1;durP2;ratioP2;P2;SDS_P1;SDS_P2;PMS_P1;PMS_P2;Temp;Humidity;BMP_temperature;BMP_pressure;BME280_temperature;BME280_humidity;BME280_pressure;Samples;Min_cycle;Max_cycle;Signal;HPM_P1;HPM_P2
2023/09/18 00:00:49;;;;;;;;;;;20.00;98.10;;;;;;5094858;28;20359;-71
2023/09/18 00:03:17;;;;;;;;;;;20.00;98.10;;;;;;5082593;28;19909;-71
2023/09/18 00:05:43;;;;;;;;;;;20.00;97.80;;;;;;5090374;28;20045;-71
2023/09/18 00:08:08;;;;;;;;;;;20.00;97.60;;;;;;5089621;28;20022;-71
2023/09/18 00:10:34;;;;;;;;;;;20.00;97.80;;;;;;5081902;28;20026;-71
2023/09/18 00:13:01;;;;;;;;;;;20.00;98.00;;;;;;5089744;28;20007;-71
2023/09/18 00:15:26;;;;;;;;;;;20.00;97.90;;;;;;5081955;28;19964;-71
2023/09/18 00:17:52;;;;;;;;;;;20.00;98.10;;;;;;5090278;28;19912;-71
2023/09/18 00:20:18;;;;;;;;;;;19.90;98.20;;;;;;5081446;28;19915;-71
2023/09/18 00:22:44;;;;;;;;;;;19.90;98.30;;;;;;5076482;28;20273;-71
2023/09/18 00:25:09;;;;;;;;;;;19.90;98.40;;;;;;5078086;28;19908;-71
2023/09/18 00:27:36;;;;;;;;;;;19.80;98.20;;;;;;5083405;28;19920;-71
2023/09/18 00:30:03;;;;;;;;;;;19.90;98.10;;;;;;5072825;28;20004;-71
2023/09/18 00:32:29;;;;;;;;;;;19.90;98.00;;;;;;5089740;28;20076;-71
2023/09/18 00:34:55;;;;;;;;;;;19.80;98.00;;;;;;5089419;28;20592;-71
2023/09/18 00:37:20;;;;;;;;;;;19.90;98.20;;;;;;5089277;28;19919;-71
2023/09/18 00:39:46;;;;;;;;;;;19.80;98.10;;;;;;5074136;28;19913;-71
2023/09/18 00:42:13;;;;;;;;;;;19.80;98.30;;;;;;5117613;27;20579;-71
2023/09/18 00:44:40;;;;;;;;;;;19.80;98.40;;;;;;5091272;28;19916;-71
2023/09/18 00:47:07;;;;;;;;;;;19.80;98.30;;;;;;5089019;28;19908;-71
2023/09/18 00:49:33;;;;;;;;;;;19.80;98.50;;;;;;5108794;27;20325;-71
2023/09/18 00:51:58;;;;;;;;;;;19.70;98.30;;;;;;5109873;27;20430;-71
2023/09/18 00:54:24;;;;;;;;;;;19.70;98.40;;;;;;5083774;28;19954;-71
2023/09/18 00:56:53;;;;;;;;;;;19.70;98.40;;;;;;5089434;28;19908;-71
2023/09/18 00:59:19;;;;;;;;;;;19.70;98.40;;;;;;5078021;28;20015;-71
2023/09/18 01:01:45;;;;;;;;;;;19.70;98.30;;;;;;5069255;28;19977;-71
2023/09/18 01:04:13;;;;;;;;;;;19.70;98.40;;;;;;5070106;28;20353;-71
2023/09/18 01:06:38;;;;;;;;;;;19.70;98.40;;;;;;5089010;28;20091;-71
2023/09/18 01:09:11;;;;;;;;;;;19.70;98.60;;;;;;5088874;28;19934;-71
2023/09/18 01:11:46;;;;;;;;;;;19.70;98.60;;;;;;5087714;28;19916;-71
2023/09/18 01:14:28;;;;;;;;;;;19.70;98.60;;;;;;5086685;28;19915;-71
2023/09/18 01:16:56;;;;;;;;;;;19.60;98.50;;;;;;5108737;27;20284;-71
2023/09/18 01:19:54;;;;;;;;;;;19.60;98.30;;;;;;5085521;28;19920;-71
2023/09/18 01:22:21;;;;;;;;;;;19.60;98.20;;;;;;5054997;28;19924;-71
2023/09/18 01:24:47;;;;;;;;;;;19.60;98.30;;;;;;5077967;28;19962;-71
2023/09/18 01:27:14;;;;;;;;;;;19.60;98.30;;;;;;5088428;28;19952;-71
2023/09/18 01:29:39;;;;;;;;;;;19.60;98.40;;;;;;5087521;28;19908;-71
2023/09/18 01:32:05;;;;;;;;;;;19.60;98.40;;;;;;5083964;28;19912;-71
2023/09/18 01:34:41;;;;;;;;;;;19.50;98.50;;;;;;5075969;28;19909;-71
2023/09/18 01:37:08;;;;;;;;;;;19.50;98.40;;;;;;5076647;28;19970;-71
2023/09/18 01:39:34;;;;;;;;;;;19.50;98.50;;;;;;5113953;27;20031;-71
2023/09/18 01:42:05;;;;;;;;;;;19.50;98.40;;;;;;5085404;28;20358;-71
2023/09/18 01:44:31;;;;;;;;;;;19.50;98.60;;;;;;5079068;28;19919;-71
2023/09/18 01:47:02;;;;;;;;;;;19.50;98.50;;;;;;5086978;28;19908;-71
2023/09/18 01:49:38;;;;;;;;;;;19.50;98.50;;;;;;5076742;28;19916;-71
2023/09/18 01:52:04;;;;;;;;;;;19.50;98.50;;;;;;5076356;28;20378;-71
2023/09/18 01:54:30;;;;;;;;;;;19.50;98.50;;;;;;5092245;28;19908;-71
2023/09/18 01:56:56;;;;;;;;;;;19.50;98.40;;;;;;5090993;28;19934;-71
2023/09/18 01:59:21;;;;;;;;;;;19.50;98.50;;;;;;5085057;28;19919;-71
2023/09/18 02:01:47;;;;;;;;;;;19.40;98.40;;;;;;5091369;28;20375;-71
2023/09/18 02:04:13;;;;;;;;;;;19.50;98.50;;;;;;5087771;28;19915;-71
2023/09/18 02:06:39;;;;;;;;;;;19.50;98.60;;;;;;5088181;28;19916;-71
2023/09/18 02:09:05;;;;;;;;;;;19.40;98.60;;;;;;5087911;28;19909;-71
2023/09/18 02:11:30;;;;;;;;;;;19.40;98.50;;;;;;5089244;28;20031;-71
2023/09/18 02:13:56;;;;;;;;;;;19.40;98.50;;;;;;5088486;28;20009;-71
2023/09/18 02:16:22;;;;;;;;;;;19.40;98.30;;;;;;5087084;28;20542;-71
2023/09/18 02:18:48;;;;;;;;;;;19.40;98.50;;;;;;5079929;28;20285;-71
2023/09/18 02:21:20;;;;;;;;;;;19.40;98.20;;;;;;5087819;28;19919;-71
2023/09/18 02:23:45;;;;;;;;;;;19.40;98.20;;;;;;5082508;28;19966;-71
2023/09/18 02:26:11;;;;;;;;;;;19.40;98.40;;;;;;5087441;28;20329;-71
2023/09/18 02:28:36;;;;;;;;;;;19.40;98.40;;;;;;5081942;28;20494;-71
2023/09/18 02:31:02;;;;;;;;;;;19.30;98.30;;;;;;5067765;28;19935;-71
2023/09/18 02:33:28;;;;;;;;;;;19.40;98.70;;;;;;5088000;28;20591;-71
2023/09/18 02:35:53;;;;;;;;;;;19.30;98.40;;;;;;5080884;28;19920;-70
2023/09/18 02:38:19;;;;;;;;;;;19.40;98.50;;;;;;5099692;28;19912;-70
2023/09/18 02:40:44;;;;;;;;;;;19.40;98.50;;;;;;5104338;28;19917;-70
2023/09/18 02:43:10;;;;;;;;;;;19.30;98.40;;;;;;5083730;28;19944;-70
2023/09/18 02:45:35;;;;;;;;;;;19.30;98.40;;;;;;5077042;28;19907;-70
2023/09/18 02:48:01;;;;;;;;;;;19.30;98.30;;;;;;5081551;28;20438;-70
2023/09/18 02:50:26;;;;;;;;;;;19.30;98.20;;;;;;5087766;28;19951;-70
2023/09/18 02:52:52;;;;;;;;;;;19.30;98.10;;;;;;5087647;28;19966;-70
2023/09/18 02:55:17;;;;;;;;;;;19.30;98.20;;;;;;5066755;28;19909;-70
2023/09/18 02:57:43;;;;;;;;;;;19.30;98.10;;;;;;5073115;28;19915;-70
2023/09/18 03:00:09;;;;;;;;;;;19.30;98.00;;;;;;5069509;28;19912;-70
2023/09/18 03:02:35;;;;;;;;;;;19.30;98.00;;;;;;5075372;28;20440;-70
2023/09/18 03:05:01;;;;;;;;;;;19.30;98.10;;;;;;5085923;28;19912;-70
2023/09/18 03:07:29;;;;;;;;;;;19.30;98.10;;;;;;5082343;28;19919;-70
2023/09/18 03:09:55;;;;;;;;;;;19.30;98.00;;;;;;5083763;28;19912;-70
2023/09/18 03:12:22;;;;;;;;;;;19.30;97.80;;;;;;5086998;28;19916;-70
2023/09/18 03:14:47;;;;;;;;;;;19.30;97.80;;;;;;5105737;28;19957;-70
2023/09/18 03:17:13;;;;;;;;;;;19.30;97.70;;;;;;5079109;28;19917;-70
2023/09/18 03:19:38;;;;;;;;;;;19.30;97.70;;;;;;5082968;28;20418;-70
2023/09/18 03:22:04;;;;;;;;;;;19.30;97.70;;;;;;5073759;28;19909;-70
2023/09/18 03:24:30;;;;;;;;;;;19.30;97.70;;;;;;5105911;27;20524;-70
2023/09/18 03:26:55;;;;;;;;;;;19.30;97.60;;;;;;5077744;28;19998;-70
2023/09/18 03:29:21;;;;;;;;;;;19.30;97.60;;;;;;5069256;28;19991;-70
2023/09/18 03:31:46;;;;;;;;;;;19.30;97.60;;;;;;5078562;28;19923;-70
2023/09/18 03:34:12;;;;;;;;;;;19.30;97.60;;;;;;5122285;27;19955;-70
2023/09/18 03:36:39;;;;;;;;;;;19.30;97.50;;;;;;5090078;28;19918;-70
2023/09/18 03:39:05;;;;;;;;;;;19.40;97.50;;;;;;5097033;28;20237;-70
2023/09/18 03:41:34;;;;;;;;;;;19.40;97.60;;;;;;5083026;28;20353;-70
2023/09/18 03:44:02;;;;;;;;;;;19.40;97.50;;;;;;5085071;28;20596;-70
2023/09/18 03:46:28;;;;;;;;;;;19.40;97.50;;;;;;5070569;28;19913;-70
2023/09/18 03:48:54;;;;;;;;;;;19.40;97.40;;;;;;5077686;28;20300;-70
2023/09/18 03:51:20;;;;;;;;;;;19.40;97.40;;;;;;5092686;28;19916;-70
2023/09/18 03:53:47;;;;;;;;;;;19.40;97.40;;;;;;5094897;28;19914;-70
2023/09/18 03:56:13;;;;;;;;;;;19.40;97.40;;;;;;5090172;28;20501;-70
2023/09/18 03:58:38;;;;;;;;;;;19.50;97.40;;;;;;5090677;28;19916;-70
2023/09/18 04:01:04;;;;;;;;;;;19.40;97.40;;;;;;5073113;28;19987;-70
2023/09/18 04:03:29;;;;;;;;;;;19.50;97.40;;;;;;5070088;28;19995;-70
2023/09/18 04:05:55;;;;;;;;;;;19.40;97.30;;;;;;5070226;28;19908;-70
2023/09/18 04:08:20;;;;;;;;;;;19.40;97.30;;;;;;5077809;28;19908;-70
2023/09/18 04:10:46;;;;;;;;;;;19.50;97.30;;;;;;5088060;28;19912;-70
2023/09/18 04:13:12;;;;;;;;;;;19.50;97.30;;;;;;5106560;27;19922;-70
2023/09/18 04:15:37;;;;;;;;;;;19.50;97.30;;;;;;5096606;28;19965;-70
2023/09/18 04:18:06;;;;;;;;;;;19.50;97.20;;;;;;5073236;28;19916;-70
2023/09/18 04:20:31;;;;;;;;;;;19.50;97.20;;;;;;5090084;28;20608;-70
2023/09/18 04:23:15;;;;;;;;;;;19.50;97.20;;;;;;5090021;28;19918;-70
2023/09/18 04:25:41;;;;;;;;;;;19.50;97.20;;;;;;5084548;28;19915;-70
2023/09/18 04:28:07;;;;;;;;;;;19.50;97.20;;;;;;5076654;28;20284;-70
2023/09/18 04:30:33;;;;;;;;;;;19.50;97.20;;;;;;5073758;28;20265;-70
2023/09/18 04:32:59;;;;;;;;;;;19.50;97.20;;;;;;5081496;28;19927;-70
2023/09/18 04:35:25;;;;;;;;;;;19.50;97.20;;;;;;5088021;28;19916;-70
2023/09/18 04:37:54;;;;;;;;;;;19.50;97.20;;;;;;5088316;28;20506;-70
2023/09/18 04:40:20;;;;;;;;;;;19.50;97.30;;;;;;5097537;28;20011;-70
2023/09/18 04:42:45;;;;;;;;;;;19.50;97.20;;;;;;5089833;28;19987;-70
2023/09/18 04:45:11;;;;;;;;;;;19.50;97.20;;;;;;5080552;28;20351;-70
2023/09/18 04:47:36;;;;;;;;;;;19.50;97.10;;;;;;5088354;28;19919;-70
2023/09/18 04:50:05;;;;;;;;;;;19.50;97.10;;;;;;5089468;28;19919;-70
2023/09/18 04:52:30;;;;;;;;;;;19.50;97.00;;;;;;5075988;28;20373;-70
2023/09/18 04:54:57;;;;;;;;;;;19.60;97.10;;;;;;5072267;28;19919;-70
2023/09/18 04:57:22;;;;;;;;;;;19.50;97.10;;;;;;5068741;28;20285;-70
2023/09/18 04:59:49;;;;;;;;;;;19.50;97.10;;;;;;5083626;28;19973;-70
2023/09/18 05:02:14;;;;;;;;;;;19.50;97.10;;;;;;5088998;28;19912;-70
2023/09/18 05:04:40;;;;;;;;;;;19.50;97.10;;;;;;5088994;28;20406;-70
2023/09/18 05:07:05;;;;;;;;;;;19.50;97.10;;;;;;5088977;28;19908;-70
2023/09/18 05:09:32;;;;;;;;;;;19.50;97.10;;;;;;5084752;28;19915;-70
2023/09/18 05:11:58;;;;;;;;;;;19.60;97.10;;;;;;5097966;28;19911;-70
2023/09/18 05:14:23;;;;;;;;;;;19.50;97.10;;;;;;5091907;28;20624;-70
2023/09/18 05:16:48;;;;;;;;;;;19.50;97.00;;;;;;5098397;28;19916;-70
2023/09/18 05:19:14;;;;;;;;;;;19.50;97.10;;;;;;5089289;28;20273;-70
2023/09/18 05:21:40;;;;;;;;;;;19.60;97.10;;;;;;5073880;28;19951;-70
2023/09/18 05:24:05;;;;;;;;;;;19.50;97.00;;;;;;5095702;28;20004;-70
2023/09/18 05:26:31;;;;;;;;;;;19.50;97.10;;;;;;5079966;28;20469;-70
2023/09/18 05:28:57;;;;;;;;;;;19.50;97.10;;;;;;5088771;28;19944;-70
2023/09/18 05:31:24;;;;;;;;;;;19.50;97.00;;;;;;5069106;28;19967;-70
2023/09/18 05:33:50;;;;;;;;;;;19.50;97.10;;;;;;5083187;28;20451;-70
2023/09/18 05:36:15;;;;;;;;;;;19.50;97.00;;;;;;5085244;28;19946;-70
2023/09/18 05:38:43;;;;;;;;;;;19.50;97.00;;;;;;5085048;28;19912;-70
2023/09/18 05:41:09;;;;;;;;;;;19.50;97.00;;;;;;5073437;28;20420;-70
2023/09/18 05:43:35;;;;;;;;;;;19.50;97.00;;;;;;5081024;28;19912;-70
2023/09/18 05:46:01;;;;;;;;;;;19.60;97.00;;;;;;5080708;28;19931;-70
2023/09/18 05:48:26;;;;;;;;;;;19.60;97.00;;;;;;5103829;27;19985;-70
2023/09/18 05:50:54;;;;;;;;;;;19.50;97.30;;;;;;5080098;28;19916;-70
2023/09/18 05:53:19;;;;;;;;;;;19.60;97.10;;;;;;5088537;28;19919;-70
2023/09/18 05:55:45;;;;;;;;;;;19.60;97.00;;;;;;5086013;28;19987;-70
2023/09/18 05:58:11;;;;;;;;;;;19.60;97.00;;;;;;5088863;28;19908;-70
2023/09/18 06:00:36;;;;;;;;;;;19.60;97.00;;;;;;5103897;28;19918;-70
2023/09/18 06:03:02;;;;;;;;;;;19.60;97.00;;;;;;5088246;28;20007;-70
2023/09/18 06:05:30;;;;;;;;;;;19.60;97.00;;;;;;5096272;28;20345;-70
2023/09/18 06:07:56;;;;;;;;;;;19.60;97.00;;;;;;5086924;28;19916;-70
2023/09/18 06:10:22;;;;;;;;;;;19.60;97.00;;;;;;5088505;28;19912;-70
2023/09/18 06:12:47;;;;;;;;;;;19.60;97.00;;;;;;5073699;28;19956;-70
2023/09/18 06:15:13;;;;;;;;;;;19.60;96.90;;;;;;5103974;27;20044;-70
2023/09/18 06:17:39;;;;;;;;;;;19.60;97.00;;;;;;5083271;28;20266;-70
2023/09/18 06:20:05;;;;;;;;;;;19.60;96.90;;;;;;5084333;28;19912;-70
2023/09/18 06:22:30;;;;;;;;;;;19.60;96.90;;;;;;5100949;28;19919;-70
2023/09/18 06:24:56;;;;;;;;;;;19.60;96.90;;;;;;5086200;28;19999;-70
2023/09/18 06:27:21;;;;;;;;;;;19.60;96.90;;;;;;5086898;28;20015;-70
2023/09/18 06:29:47;;;;;;;;;;;19.60;96.90;;;;;;5081133;28;20537;-70
2023/09/18 06:32:13;;;;;;;;;;;19.70;97.00;;;;;;5093231;28;19912;-70
2023/09/18 06:34:42;;;;;;;;;;;19.70;96.90;;;;;;5082917;28;19916;-70
2023/09/18 06:37:08;;;;;;;;;;;19.70;97.10;;;;;;5067741;28;19916;-70
2023/09/18 06:39:33;;;;;;;;;;;19.70;97.00;;;;;;5106163;27;20291;-70
2023/09/18 06:41:59;;;;;;;;;;;19.70;96.90;;;;;;5084157;28;19923;-70
2023/09/18 06:44:24;;;;;;;;;;;19.70;97.00;;;;;;5096243;28;19927;-70
2023/09/18 06:46:50;;;;;;;;;;;19.70;96.90;;;;;;5077858;28;19908;-70
2023/09/18 06:49:15;;;;;;;;;;;19.80;97.00;;;;;;5091328;28;19920;-70
2023/09/18 06:51:41;;;;;;;;;;;19.80;97.00;;;;;;5091125;28;19962;-70
2023/09/18 06:54:06;;;;;;;;;;;19.80;97.00;;;;;;5090588;28;19912;-70
2023/09/18 06:56:32;;;;;;;;;;;19.80;97.00;;;;;;5089350;28;19988;-70
2023/09/18 06:58:57;;;;;;;;;;;19.80;97.00;;;;;;5089641;28;19977;-70
2023/09/18 07:01:24;;;;;;;;;;;19.80;97.10;;;;;;5087520;28;19912;-70
2023/09/18 07:03:50;;;;;;;;;;;19.80;97.00;;;;;;5087454;28;19915;-70
2023/09/18 07:06:15;;;;;;;;;;;19.80;97.00;;;;;;5088356;28;19912;-70
2023/09/18 07:08:44;;;;;;;;;;;19.90;96.90;;;;;;5077797;28;19908;-70
2023/09/18 07:11:10;;;;;;;;;;;19.90;96.90;;;;;;5076024;28;20006;-70
2023/09/18 07:13:36;;;;;;;;;;;19.90;96.90;;;;;;5084304;28;19916;-70
2023/09/18 07:16:03;;;;;;;;;;;19.90;97.20;;;;;;5090187;28;19916;-70
2023/09/18 07:18:29;;;;;;;;;;;19.90;96.90;;;;;;5089543;28;20412;-70
2023/09/18 07:20:54;;;;;;;;;;;20.00;97.00;;;;;;5090236;28;19946;-70
2023/09/18 07:23:20;;;;;;;;;;;20.00;96.90;;;;;;5079005;28;19924;-70
2023/09/18 07:25:47;;;;;;;;;;;20.00;96.90;;;;;;5087980;28;20271;-70
2023/09/18 07:28:17;;;;;;;;;;;20.00;97.00;;;;;;5073869;28;19916;-70
2023/09/18 07:30:43;;;;;;;;;;;20.00;96.90;;;;;;5090816;28;19912;-70
2023/09/18 07:33:09;;;;;;;;;;;20.10;97.00;;;;;;5090198;28;19916;-70
2023/09/18 07:35:35;;;;;;;;;;;20.10;97.10;;;;;;5090885;28;19912;-70
2023/09/18 07:38:00;;;;;;;;;;;20.10;97.00;;;;;;5089916;28;19908;-70
2023/09/18 07:40:26;;;;;;;;;;;20.20;96.90;;;;;;5079469;28;19912;-70
2023/09/18 07:42:52;;;;;;;;;;;20.20;96.90;;;;;;5075493;28;19913;-70
2023/09/18 07:45:18;;;;;;;;;;;20.30;96.80;;;;;;5069650;28;19912;-70
2023/09/18 07:47:43;;;;;;;;;;;20.30;97.10;;;;;;5102952;28;19952;-70
2023/09/18 07:50:09;;;;;;;;;;;20.40;96.70;;;;;;5077805;28;19939;-70
2023/09/18 07:52:35;;;;;;;;;;;20.40;96.70;;;;;;5082351;28;19913;-70
2023/09/18 07:55:00;;;;;;;;;;;20.40;96.90;;;;;;5089998;28;19912;-70
2023/09/18 07:57:28;;;;;;;;;;;20.40;96.90;;;;;;5079057;28;20277;-70
2023/09/18 07:59:53;;;;;;;;;;;20.40;96.70;;;;;;5090713;28;19908;-70
2023/09/18 08:02:19;;;;;;;;;;;20.40;96.80;;;;;;5069739;28;19920;-70
2023/09/18 08:04:44;;;;;;;;;;;20.40;96.70;;;;;;5069732;28;19908;-70
2023/09/18 08:07:10;;;;;;;;;;;20.50;96.90;;;;;;5077800;28;19908;-70
2023/09/18 08:09:36;;;;;;;;;;;20.50;96.70;;;;;;5077357;28;19947;-70
2023/09/18 08:12:02;;;;;;;;;;;20.50;96.70;;;;;;5074610;28;20368;-70
2023/09/18 08:14:27;;;;;;;;;;;20.50;96.80;;;;;;5083784;28;19908;-70
2023/09/18 08:17:00;;;;;;;;;;;20.50;96.70;;;;;;5093904;28;19912;-70
2023/09/18 08:19:26;;;;;;;;;;;20.50;96.70;;;;;;5074773;28;22213;-70
2023/09/18 08:21:59;;;;;;;;;;;20.60;96.60;;;;;;5088584;28;20386;-70
2023/09/18 08:24:25;;;;;;;;;;;20.60;96.70;;;;;;5084707;28;19912;-70
2023/09/18 08:26:51;;;;;;;;;;;20.60;96.60;;;;;;5069329;28;19916;-70
2023/09/18 08:29:17;;;;;;;;;;;20.60;96.80;;;;;;5070090;28;19908;-70
2023/09/18 08:31:42;;;;;;;;;;;20.60;96.70;;;;;;5079433;28;19978;-70
2023/09/18 08:34:08;;;;;;;;;;;20.60;96.70;;;;;;5068861;28;20277;-70
2023/09/18 08:36:33;;;;;;;;;;;20.60;96.70;;;;;;5075906;28;19920;-70
2023/09/18 08:38:59;;;;;;;;;;;20.60;96.70;;;;;;5078111;28;19913;-70
2023/09/18 08:41:26;;;;;;;;;;;20.60;96.70;;;;;;5074428;28;20535;-70
2023/09/18 08:43:54;;;;;;;;;;;20.60;96.60;;;;;;5068585;28;19920;-70
2023/09/18 08:46:20;;;;;;;;;;;20.70;96.60;;;;;;5078959;28;19913;-70
2023/09/18 08:48:46;;;;;;;;;;;20.60;96.60;;;;;;5075367;28;19912;-70
2023/09/18 08:51:12;;;;;;;;;;;20.70;96.60;;;;;;5085485;28;19919;-70
2023/09/18 08:53:37;;;;;;;;;;;20.70;96.60;;;;;;5072638;28;19920;-70
2023/09/18 08:56:04;;;;;;;;;;;20.80;96.60;;;;;;5068708;28;19916;-70
2023/09/18 08:58:35;;;;;;;;;;;20.80;96.50;;;;;;5076871;28;19912;-70
2023/09/18 09:01:05;;;;;;;;;;;20.80;96.50;;;;;;5075287;28;19977;-70
2023/09/18 09:03:31;;;;;;;;;;;20.80;96.40;;;;;;5069339;28;19937;-70
2023/09/18 09:06:00;;;;;;;;;;;20.90;96.40;;;;;;5075280;28;19916;-70
2023/09/18 09:08:27;;;;;;;;;;;20.90;96.30;;;;;;5068821;28;20385;-70
2023/09/18 09:10:53;;;;;;;;;;;20.90;96.30;;;;;;5072122;28;19908;-70
2023/09/18 09:13:21;;;;;;;;;;;20.90;96.30;;;;;;5070472;28;19928;-70
2023/09/18 09:15:49;;;;;;;;;;;21.00;96.30;;;;;;5079860;28;19916;-70
2023/09/18 09:18:15;;;;;;;;;;;21.00;96.30;;;;;;5079802;28;19961;-70
2023/09/18 09:20:41;;;;;;;;;;;21.10;96.10;;;;;;5086799;28;19969;-70
2023/09/18 09:23:08;;;;;;;;;;;21.10;96.10;;;;;;5088159;28;20037;-70
2023/09/18 09:25:34;;;;;;;;;;;21.10;96.00;;;;;;5071258;28;19919;-70
2023/09/18 09:28:04;;;;;;;;;;;21.20;96.20;;;;;;5072969;28;19962;-70
2023/09/18 09:30:30;;;;;;;;;;;21.20;96.00;;;;;;5067749;28;19912;-70
2023/09/18 09:32:57;;;;;;;;;;;21.20;96.00;;;;;;5068013;28;20043;-70
2023/09/18 09:35:27;;;;;;;;;;;21.20;96.00;;;;;;5077964;28;19990;-70
2023/09/18 09:37:55;;;;;;;;;;;21.20;96.00;;;;;;5074727;28;19912;-70
2023/09/18 09:40:21;;;;;;;;;;;21.20;96.00;;;;;;5077834;28;19912;-70
2023/09/18 09:42:47;;;;;;;;;;;21.30;96.00;;;;;;5082654;28;19912;-70
2023/09/18 09:45:14;;;;;;;;;;;21.30;96.00;;;;;;5067560;28;20388;-70
2023/09/18 09:47:40;;;;;;;;;;;21.30;95.90;;;;;;5066880;28;20575;-70
2023/09/18 09:50:06;;;;;;;;;;;21.30;95.90;;;;;;5068204;28;19955;-70
2023/09/18 09:52:33;;;;;;;;;;;21.30;95.90;;;;;;5084288;28;19924;-70
2023/09/18 09:54:58;;;;;;;;;;;21.30;95.90;;;;;;5071804;28;19923;-70
2023/09/18 09:57:24;;;;;;;;;;;21.40;95.90;;;;;;5067743;28;19913;-70
2023/09/18 09:59:49;;;;;;;;;;;21.40;95.90;;;;;;5100235;28;20404;-70
2023/09/18 10:02:19;;;;;;;;;;;21.40;95.80;;;;;;5085165;28;19908;-70
2023/09/18 10:04:48;;;;;;;;;;;21.40;95.80;;;;;;5087856;28;20260;-70
2023/09/18 10:07:15;;;;;;;;;;;21.50;95.80;;;;;;5080418;28;19920;-70
2023/09/18 10:09:42;;;;;;;;;;;21.50;95.80;;;;;;5074994;28;19909;-70
2023/09/18 10:12:12;;;;;;;;;;;21.50;95.70;;;;;;5075969;28;20560;-70
2023/09/18 10:14:39;;;;;;;;;;;21.60;95.70;;;;;;5084110;28;20274;-70
2023/09/18 10:17:11;;;;;;;;;;;21.60;95.70;;;;;;5100136;27;19919;-70
2023/09/18 10:19:45;;;;;;;;;;;21.60;95.70;;;;;;5071912;28;19920;-70
2023/09/18 10:22:11;;;;;;;;;;;21.70;95.70;;;;;;5071134;28;19909;-70
2023/09/18 10:24:37;;;;;;;;;;;21.70;95.60;;;;;;5076254;28;19919;-70
2023/09/18 10:27:05;;;;;;;;;;;21.70;95.60;;;;;;5067820;28;20679;-70
2023/09/18 10:29:32;;;;;;;;;;;21.70;95.50;;;;;;5070020;28;19908;-70
2023/09/18 10:31:58;;;;;;;;;;;21.70;95.40;;;;;;5072263;28;19943;-70
2023/09/18 10:34:24;;;;;;;;;;;21.80;95.40;;;;;;5069060;28;20021;-70
2023/09/18 10:36:54;;;;;;;;;;;21.80;95.20;;;;;;5072965;28;19952;-70
2023/09/18 10:39:23;;;;;;;;;;;21.90;95.30;;;;;;5066535;28;19912;-70
2023/09/18 10:41:56;;;;;;;;;;;21.90;95.30;;;;;;5073374;28;19923;-70
2023/09/18 10:44:22;;;;;;;;;;;22.00;95.20;;;;;;5066463;28;19912;-70
2023/09/18 10:46:49;;;;;;;;;;;22.00;95.00;;;;;;5079198;28;19966;-70
2023/09/18 10:49:15;;;;;;;;;;;22.00;95.00;;;;;;5069968;28;19912;-70
2023/09/18 10:51:42;;;;;;;;;;;22.10;95.00;;;;;;5073927;28;19942;-70
2023/09/18 10:54:08;;;;;;;;;;;22.10;95.00;;;;;;5074334;28;20444;-70
2023/09/18 10:56:34;;;;;;;;;;;22.20;95.00;;;;;;5082740;28;19913;-70
2023/09/18 10:59:00;;;;;;;;;;;22.10;95.10;;;;;;5065464;28;20012;-70
2023/09/18 11:01:27;;;;;;;;;;;22.20;95.00;;;;;;5067327;28;19909;-70
2023/09/18 11:03:57;;;;;;;;;;;22.10;95.00;;;;;;5079924;28;19908;-70
2023/09/18 11:06:26;;;;;;;;;;;22.20;95.20;;;;;;5073361;28;19913;-70
2023/09/18 11:09:01;;;;;;;;;;;22.30;95.20;;;;;;5079018;28;19916;-70
2023/09/18 11:11:29;;;;;;;;;;;22.40;95.30;;;;;;5084367;28;20019;-70
2023/09/18 11:13:56;;;;;;;;;;;22.40;95.30;;;;;;5085774;28;19912;-70
2023/09/18 11:16:28;;;;;;;;;;;22.50;95.40;;;;;;5077887;28;19912;-70
2023/09/18 11:19:05;;;;;;;;;;;22.60;95.30;;;;;;5080498;28;19908;-70
2023/09/18 11:21:31;;;;;;;;;;;22.60;95.60;;;;;;5082727;28;20011;-70
2023/09/18 11:24:01;;;;;;;;;;;22.70;95.50;;;;;;5070349;28;19920;-70
2023/09/18 11:26:31;;;;;;;;;;;22.80;95.50;;;;;;5073669;28;19920;-69
2023/09/18 11:29:17;;;;;;;;;;;22.80;95.30;;;;;;5081511;28;19912;-70
2023/09/18 11:31:43;;;;;;;;;;;22.90;95.30;;;;;;5081505;28;20300;-70
2023/09/18 11:34:38;;;;;;;;;;;22.90;95.50;;;;;;5089859;28;20352;-69
2023/09/18 11:37:25;;;;;;;;;;;23.10;95.40;;;;;;5088957;28;19951;-69
2023/09/18 11:39:51;;;;;;;;;;;23.00;95.40;;;;;;5083732;28;19919;-69
2023/09/18 11:42:22;;;;;;;;;;;23.10;95.10;;;;;;5080035;28;19921;-70
2023/09/18 11:44:49;;;;;;;;;;;23.10;94.70;;;;;;5078180;28;19919;-70
2023/09/18 11:47:19;;;;;;;;;;;23.10;94.30;;;;;;5084671;28;19912;-70
2023/09/18 11:49:54;;;;;;;;;;;23.20;94.10;;;;;;5088644;28;19913;-70
2023/09/18 11:52:24;;;;;;;;;;;23.30;94.50;;;;;;5085253;28;19916;-70
2023/09/18 11:54:50;;;;;;;;;;;23.30;94.20;;;;;;5075366;28;19974;-70
2023/09/18 11:57:19;;;;;;;;;;;23.30;94.30;;;;;;5069997;28;19989;-70
2023/09/18 11:59:48;;;;;;;;;;;23.30;94.00;;;;;;5087947;28;19962;-70
2023/09/18 12:02:20;;;;;;;;;;;23.30;94.30;;;;;;5089291;28;19908;-70
2023/09/18 12:04:47;;;;;;;;;;;23.30;94.20;;;;;;5087688;28;19969;-70
2023/09/18 12:07:13;;;;;;;;;;;23.30;94.50;;;;;;5081173;28;19965;-70
2023/09/18 12:09:39;;;;;;;;;;;23.40;94.30;;;;;;5077198;28;19971;-70
2023/09/18 12:12:06;;;;;;;;;;;23.30;94.30;;;;;;5084851;28;20003;-70
2023/09/18 12:14:32;;;;;;;;;;;23.30;93.90;;;;;;5091128;28;19912;-70
2023/09/18 12:16:59;;;;;;;;;;;23.30;94.00;;;;;;5083814;28;19985;-70
2023/09/18 12:19:25;;;;;;;;;;;23.30;93.80;;;;;;5088767;28;19916;-70
2023/09/18 12:21:51;;;;;;;;;;;23.30;93.80;;;;;;5088945;28;20368;-70
2023/09/18 12:24:22;;;;;;;;;;;23.30;94.20;;;;;;5090665;28;19919;-70
2023/09/18 12:26:48;;;;;;;;;;;23.30;94.20;;;;;;5088928;28;19924;-70
2023/09/18 12:29:14;;;;;;;;;;;23.40;94.00;;;;;;5088444;28;19912;-70
2023/09/18 12:31:40;;;;;;;;;;;23.50;94.10;;;;;;5088881;28;19950;-70
2023/09/18 12:34:13;;;;;;;;;;;23.40;93.60;;;;;;5088788;28;19908;-70
2023/09/18 12:36:41;;;;;;;;;;;23.50;93.60;;;;;;5084934;28;19916;-70
2023/09/18 12:39:06;;;;;;;;;;;23.50;93.80;;;;;;5102106;28;19916;-70
2023/09/18 12:41:32;;;;;;;;;;;23.60;94.20;;;;;;5087050;28;19912;-70
2023/09/18 12:43:57;;;;;;;;;;;23.70;94.10;;;;;;5094816;28;20269;-70
2023/09/18 12:46:23;;;;;;;;;;;23.70;93.70;;;;;;5098205;27;19915;-70
2023/09/18 12:48:48;;;;;;;;;;;23.70;93.50;;;;;;5088575;28;20539;-70
2023/09/18 12:51:14;;;;;;;;;;;23.90;93.70;;;;;;5087973;28;19985;-70
2023/09/18 12:53:40;;;;;;;;;;;23.90;93.40;;;;;;5088137;28;19912;-70
2023/09/18 12:56:10;;;;;;;;;;;24.00;93.60;;;;;;5088165;28;19969;-70
2023/09/18 12:58:35;;;;;;;;;;;24.00;93.70;;;;;;5079067;28;20403;-70
2023/09/18 13:01:07;;;;;;;;;;;24.00;93.50;;;;;;5088951;28;19951;-70
2023/09/18 13:03:41;;;;;;;;;;;24.10;93.50;;;;;;5087205;28;19984;-70
2023/09/18 13:06:08;;;;;;;;;;;24.10;93.80;;;;;;5088896;28;19908;-70
2023/09/18 13:08:33;;;;;;;;;;;24.20;93.60;;;;;;5088677;28;20655;-70
2023/09/18 13:11:02;;;;;;;;;;;24.20;93.20;;;;;;5088723;28;20296;-70
2023/09/18 13:13:29;;;;;;;;;;;24.30;93.20;;;;;;5085823;28;19919;-70
2023/09/18 13:15:59;;;;;;;;;;;24.30;92.60;;;;;;5076893;28;20368;-70
2023/09/18 13:18:25;;;;;;;;;;;24.30;92.30;;;;;;5078811;28;20354;-70
2023/09/18 13:20:51;;;;;;;;;;;24.30;92.70;;;;;;5082756;28;19954;-70
2023/09/18 13:23:17;;;;;;;;;;;24.30;92.10;;;;;;5085498;28;20324;-70
2023/09/18 13:25:44;;;;;;;;;;;24.40;92.70;;;;;;5087370;28;20383;-70
2023/09/18 13:28:10;;;;;;;;;;;24.40;91.70;;;;;;5088952;28;20383;-70
2023/09/18 13:30:38;;;;;;;;;;;24.40;92.00;;;;;;5087891;28;19912;-70
2023/09/18 13:33:06;;;;;;;;;;;24.50;93.10;;;;;;5087550;28;21576;-70
2023/09/18 13:35:32;;;;;;;;;;;24.50;91.80;;;;;;5085445;28;20049;-70
2023/09/18 13:37:57;;;;;;;;;;;24.50;92.60;;;;;;5083161;28;19916;-70
2023/09/18 13:40:23;;;;;;;;;;;24.60;91.50;;;;;;5066267;28;19916;-70
2023/09/18 13:42:49;;;;;;;;;;;24.50;92.30;;;;;;5093483;28;19912;-70
2023/09/18 13:45:16;;;;;;;;;;;24.60;92.40;;;;;;5073092;28;19913;-70
2023/09/18 13:47:41;;;;;;;;;;;24.60;92.40;;;;;;5091608;28;19936;-70
2023/09/18 13:50:08;;;;;;;;;;;24.60;92.90;;;;;;5092506;28;19959;-70
2023/09/18 13:52:34;;;;;;;;;;;24.60;92.60;;;;;;5087951;28;19947;-70
2023/09/18 13:55:00;;;;;;;;;;;24.70;92.40;;;;;;5081090;28;19947;-70
2023/09/18 13:57:26;;;;;;;;;;;24.70;92.10;;;;;;5076063;28;19985;-70
2023/09/18 13:59:51;;;;;;;;;;;24.70;92.20;;;;;;5067939;28;19912;-70
2023/09/18 14:02:17;;;;;;;;;;;24.70;91.70;;;;;;5100077;28;19912;-70
2023/09/18 14:04:43;;;;;;;;;;;24.70;92.10;;;;;;5083288;28;19914;-70
2023/09/18 14:07:09;;;;;;;;;;;24.80;92.60;;;;;;5097653;28;19916;-70
2023/09/18 14:09:35;;;;;;;;;;;24.80;92.20;;;;;;5087555;28;19919;-70
2023/09/18 14:12:02;;;;;;;;;;;24.80;91.60;;;;;;5087832;28;19912;-70
2023/09/18 14:14:28;;;;;;;;;;;24.70;91.60;;;;;;5081380;28;20356;-70